Terminal Aerodrome Forecast
Issued by NWS Sterling, VA

Home | Current Version | Previous Version | Text Only | Print | Product List | Glossary On
Versions: 1 2 3 4 5 6 7 8 9 10 11 12 13 14
000
FTUS41 KLWX 260539
TAFMRB
TAF
KMRB 260539Z 2606/2706 08006KT P6SM OVC070
     FM260900 09006KT P6SM OVC020
     FM261000 09006KT P6SM OVC008
     FM261600 11007KT 4SM -DZ OVC008
     FM262100 11008KT 2SM -DZRA OVC015=

USA.gov is the U.S. government's official web portal to all federal, state and local government web resources and services.